Wednesday, November 22, 2017, 11:32 AM EST
Back to Local

KJYO, Leesburg / Godfrey

Location: Leesburg, VA, United States Lat: 39.083
Local Time: 11:32 AM EST (16:32 GMT) Lon: -77.567
Time Zone: US/Eastern Elev: 390 ft

Show me the last for .
Show Decoded

2017-11-22 11:15 METAR KJYO 221615Z AUTO 31017G25KT 10SM OVC045 12/02 A3005 RMK AO2 =
2017-11-22 10:55 METAR KJYO 221555Z AUTO 33019G27KT 10SM BKN045 OVC050 11/02 A3004 RMK AO2 =
2017-11-22 10:35 METAR KJYO 221535Z AUTO 33016G25KT 10SM BKN047 11/03 A3003 RMK AO2 =
2017-11-22 10:15 METAR KJYO 221515Z AUTO 32020G25KT 10SM BKN050 12/03 A3002 RMK AO2 =
2017-11-22 09:55 METAR KJYO 221455Z AUTO 34016G23KT 10SM SCT055 13/03 A3002 RMK AO2 =
2017-11-22 09:35 METAR KJYO 221435Z AUTO 33014G24KT 10SM CLR 13/03 A3001 RMK AO2 =
2017-11-22 09:15 METAR KJYO 221415Z AUTO 33013G20KT 10SM CLR 13/03 A3000 RMK AO2 =
2017-11-22 08:55 METAR KJYO 221355Z AUTO 33016G22KT 10SM CLR 13/02 A2999 RMK AO2 =
2017-11-22 08:35 METAR KJYO 221335Z AUTO 33009G23KT 10SM CLR 13/03 A2999 RMK AO2 =
2017-11-22 08:15 METAR KJYO 221315Z AUTO 32013G17KT 10SM CLR 12/03 A2999 RMK AO2 =
2017-11-22 07:55 METAR KJYO 221255Z AUTO 31010G15KT 10SM CLR 12/03 A2998 RMK AO2 =
2017-11-22 07:35 METAR KJYO 221235Z AUTO 31005KT 10SM SCT110 11/03 A2998 RMK AO2 =
2017-11-22 07:15 METAR KJYO 221215Z AUTO 34005KT 10SM OVC100 12/03 A2997 RMK AO2 =
2017-11-22 06:55 METAR KJYO 221155Z AUTO 32010KT 10SM SCT080 OVC090 12/04 A2996 RMK AO2 =
2017-11-22 06:35 METAR KJYO 221135Z AUTO 31007KT 10SM SCT070 BKN080 10/05 A2995 RMK AO2 =
2017-11-22 06:15 METAR KJYO 221115Z AUTO 31005KT 10SM SCT060 SCT090 08/06 A2995 RMK AO2 =
2017-11-22 05:55 METAR KJYO 221055Z AUTO 24003KT 10SM SCT100 09/06 A2995 RMK AO2 =
2017-11-22 05:35 METAR KJYO 221035Z AUTO 27003KT 10SM OVC100 08/06 A2993 RMK AO2 =
2017-11-22 05:15 METAR KJYO 221015Z AUTO 00000KT 10SM BKN100 08/06 A2993 RMK AO2 =
2017-11-22 04:55 METAR KJYO 220955Z AUTO 00000KT 10SM BKN100 10/06 A2992 RMK AO2 =
2017-11-22 04:35 METAR KJYO 220935Z AUTO 00000KT 10SM SCT045 SCT075 BKN110 10/06 A2993 RMK AO2 =
2017-11-22 04:15 METAR KJYO 220915Z AUTO 00000KT 10SM BKN075 OVC090 10/07 A2993 RMK AO2 =
2017-11-22 03:55 METAR KJYO 220855Z AUTO 00000KT 10SM BKN075 OVC090 10/06 A2994 RMK AO2 =
2017-11-22 03:35 METAR KJYO 220835Z AUTO 21003KT 10SM SCT075 OVC090 10/06 A2993 RMK AO2 =
2017-11-22 03:15 METAR KJYO 220815Z AUTO 21004KT 10SM OVC090 10/06 A2993 RMK AO2 =
2017-11-22 02:55 METAR KJYO 220755Z AUTO 24003KT 10SM OVC100 10/06 A2993 RMK AO2 =
2017-11-22 02:35 METAR KJYO 220735Z AUTO 26003KT 10SM OVC100 10/07 A2994 RMK AO2 =
2017-11-22 02:15 METAR KJYO 220715Z AUTO 23004KT 10SM BKN100 10/07 A2993 RMK AO2 =
2017-11-22 02:00 METAR KJYO 220700Z AUTO 21005KT 10SM CLR 10/07 A2994 RMK AO2 =
2017-11-22 01:35 METAR KJYO 220635Z AUTO 21005KT 10SM SCT090 10/07 A2995 RMK AO2 =
2017-11-22 01:15 METAR KJYO 220615Z AUTO 21004KT 10SM SCT090 10/07 A2996 RMK AO2 LTG DSNT S =
2017-11-22 00:55 METAR KJYO 220555Z AUTO 19007KT 10SM SCT090 10/06 A2997 RMK AO2 =
2017-11-22 00:35 METAR KJYO 220535Z AUTO 20005KT 10SM BKN080 11/06 A2998 RMK AO2 =
2017-11-22 00:15 METAR KJYO 220515Z AUTO 19008KT 10SM SCT080 11/06 A2999 RMK AO2 =
2017-11-21 23:55 METAR KJYO 220455Z AUTO 19006KT 10SM SCT080 11/06 A2999 RMK AO2 =
2017-11-21 23:35 METAR KJYO 220435Z AUTO 19006KT 10SM SCT080 11/06 A3000 RMK AO2 =
2017-11-21 23:15 METAR KJYO 220415Z AUTO 20004KT 10SM CLR 11/06 A3001 RMK AO2 =
2017-11-21 22:55 METAR KJYO 220355Z AUTO 20006KT 10SM CLR 11/06 A3001 RMK AO2 =
2017-11-21 22:35 METAR KJYO 220335Z AUTO 20007KT 10SM CLR 11/06 A3002 RMK AO2 =
2017-11-21 22:15 METAR KJYO 220315Z AUTO 19007KT 10SM CLR 11/06 A3003 RMK AO2 =
2017-11-21 21:55 METAR KJYO 220255Z AUTO 18006KT 10SM CLR 11/06 A3003 RMK AO2 =
2017-11-21 21:35 METAR KJYO 220235Z AUTO 20004KT 10SM CLR 12/06 A3003 RMK AO2 =
2017-11-21 21:15 METAR KJYO 220215Z AUTO 19008KT 10SM CLR 12/06 A3003 RMK AO2 =
2017-11-21 20:55 METAR KJYO 220155Z AUTO 19009KT 10SM CLR 12/06 A3003 RMK AO2 =
2017-11-21 20:35 METAR KJYO 220135Z AUTO 20008G15KT 10SM CLR 12/06 A3004 RMK AO2 =
2017-11-21 20:10 METAR KJYO 220110Z AUTO 19009KT 10SM CLR 12/06 A3003 RMK AO2 =
2017-11-21 19:55 METAR KJYO 220055Z AUTO 20008KT 10SM CLR 13/06 A3004 RMK AO2 =
2017-11-21 19:35 METAR KJYO 220035Z AUTO 20011G17KT 10SM CLR 13/06 A3003 RMK AO2 =
2017-11-21 19:15 METAR KJYO 220015Z AUTO 20009KT 10SM CLR 13/06 A3003 RMK AO2 =
2017-11-21 18:55 METAR KJYO 212355Z AUTO 20010G15KT 10SM CLR 13/06 A3003 RMK AO2 =
2017-11-21 18:35 METAR KJYO 212335Z AUTO 20009KT 10SM CLR 13/07 A3003 RMK AO2 =
2017-11-21 18:15 METAR KJYO 212315Z AUTO 20008KT 10SM CLR 12/07 A3003 RMK AO2 =
2017-11-21 17:55 METAR KJYO 212255Z AUTO 19008KT 10SM CLR 12/06 A3002 RMK AO2 =
2017-11-21 17:35 METAR KJYO 212235Z AUTO 21005KT 10SM CLR 12/06 A3001 RMK AO2 =
2017-11-21 17:15 METAR KJYO 212215Z AUTO 18004KT 10SM CLR 13/06 A3001 RMK AO2 =
2017-11-21 16:55 METAR KJYO 212155Z AUTO 19005KT 10SM CLR 14/06 A3001 RMK AO2 =
2017-11-21 16:35 METAR KJYO 212135Z AUTO 21006KT 10SM CLR 15/05 A3001 RMK AO2 =
2017-11-21 16:15 METAR KJYO 212115Z AUTO 19010G14KT 10SM CLR 15/05 A3001 RMK AO2 =
2017-11-21 15:55 METAR KJYO 212055Z AUTO 20009KT 10SM CLR 16/05 A3001 RMK AO2 =
2017-11-21 15:35 METAR KJYO 212035Z AUTO 20011KT 10SM CLR 16/03 A3001 RMK AO2 =
2017-11-21 15:15 METAR KJYO 212015Z AUTO 10SM CLR 16/02 A3002 RMK AO2 =
2017-11-21 14:55 METAR KJYO 211955Z AUTO 20006G14KT 10SM CLR 16/02 A3002 RMK AO2 =
2017-11-21 14:35 METAR KJYO 211935Z AUTO 19012KT 10SM CLR 15/02 A3002 RMK AO2 =
2017-11-21 14:15 METAR KJYO 211915Z AUTO 19011KT 10SM CLR 15/02 A3002 RMK AO2 =
2017-11-21 13:55 METAR KJYO 211855Z AUTO 22006KT 10SM CLR 15/01 A3003 RMK AO2 =
2017-11-21 13:35 METAR KJYO 211835Z AUTO 21010G15KT 10SM CLR 15/01 A3003 RMK AO2 =
2017-11-21 13:15 METAR KJYO 211815Z AUTO 22006KT 10SM CLR 13/01 A3004 RMK AO2 =
2017-11-21 12:55 METAR KJYO 211755Z AUTO 20007KT 10SM CLR 13/01 A3005 RMK AO2 =
2017-11-21 12:35 METAR KJYO 211735Z AUTO 18012KT 10SM CLR 13/00 A3006 RMK AO2 =
2017-11-21 12:15 METAR KJYO 211715Z AUTO 22005KT 10SM CLR 13/01 A3007 RMK AO2 =
2017-11-21 11:55 METAR KJYO 211655Z AUTO 20009KT 10SM CLR 12/00 A3008 RMK AO2 =
2017-11-21 11:35 METAR KJYO 211635Z AUTO 20009KT 10SM CLR 12/00 A3009 RMK AO2 =

Support USWX by starting your Amazon purchase here.